ADDS METAR Data INFO
IDs: Format: Raw Decoded Include TAF

Data at: 2232 UTC 22 Aug 2017

KBRO 222153Z 08016G20KT 10SM SCT040 33/24 A2997 RMK AO2 SLP148 T03330239
KBRO 222053Z 08008KT 10SM SCT045 33/22 A2998 RMK AO2 SLP149 T03330222 58016
KBRO 221953Z 07013KT 10SM SCT042 SCT055 33/23 A2999 RMK AO2 SLP155 T03280228
KBRO 221853Z 08012G19KT 10SM FEW038 FEW065 SCT090 34/23 A3001 RMK AO2 LTG DSNT SW SLP161 T03390233
KBRO 221753Z 23005KT 10SM CLR 31/25 A3002 RMK AO2 RAB1658E07 SLP166 P0000 60025 T03110250 10328 20244 50003
KBRO 221653Z VRB04KT 10SM BKN032 BKN060 OVC075 27/24 A3004 RMK AO2 WSHFT 1559 RAE41 SLP170 P0025 T02670244
KBRO 221624Z 22008KT 7SM -RA SCT032 BKN040 OVC060 27/23 A3003 RMK AO2 WSHFT 1559 P0025 T02670233
KBRO 221613Z 24010KT 2 1/2SM +RA SCT030 BKN039 BKN048 26/23 A3003 RMK AO2 WSHFT 1559 P0017 T02610233
KBRO 221553Z 11005KT 10SM -RA FEW033 FEW050 31/23 A3002 RMK AO2 RAB52 SLP166 P0000 T03060228
KBRO 221453Z 14005KT 10SM SCT026 31/24 A3002 RMK AO2 SLP163 T03060239 53012
KBRO 221353Z 10004KT 10SM CLR 29/25 A3000 RMK AO2 SLP158 T02890250
KBRO 221253Z 02003KT 10SM CLR 27/26 A2999 RMK AO2 SLP153 T02670256
KBRO 221153Z 00000KT 10SM CLR 25/25 A2998 RMK AO2 SLP151 T02500250 10278 20244 55004
KBRO 221053Z 00000KT 10SM CLR 25/25 A2997 RMK AO2 SLP148 T02500250
KBRO 220953Z AUTO 06003KT 10SM CLR 26/25 A2998 RMK AO2 SLP151 T02560250
KBRO 220853Z AUTO 00000KT 10SM CLR 26/25 A2999 RMK AO2 SLP155 T02560250 58013
KBRO 220753Z AUTO 00000KT 10SM CLR 26/25 A3001 RMK AO2 SLP160 T02610250
KBRO 220653Z AUTO 10003KT 10SM CLR 27/25 A3002 RMK AO2 SLP164 T02670250
KBRO 220553Z AUTO 10004KT 10SM FEW026 FEW034 28/25 A3003 RMK AO2 SLP168 T02780250 10306 20272 403440250 50005
KBRO 220453Z 12008KT 10SM CLR 28/25 A3004 RMK AO2 SLP170 T02780250
KBRO 220353Z 11008KT 10SM CLR 28/25 A3003 RMK AO2 SLP168 T02780250
KBRO 220253Z 10009KT 10SM CLR 28/25 A3002 RMK AO2 SLP163 T02780250 53014
KBRO 220153Z 09009KT 10SM CLR 28/25 A3000 RMK AO2 SLP157 T02830250
KBRO 220053Z 10010KT 10SM CLR 29/24 A2999 RMK AO2 SLP154 T02890244
KBRO 212353Z 10012KT 10SM FEW031 31/24 A2998 RMK AO2 SLP149 T03060239 10344 20306 53001
KBRO 212253Z 09014KT 10SM FEW036 32/23 A2996 RMK AO2 SLP145 T03220228
KBRO 212153Z 10012KT 10SM FEW040 33/23 A2997 RMK AO2 SLP148 T03280233
KBRO 212053Z 09010G18KT 10SM FEW042 33/23 A2997 RMK AO2 SLP149 T03330228 58009
KBRO 211953Z 11012G18KT 10SM FEW037 34/23 A2998 RMK AO2 SLP152 T03390233
KBRO 211853Z 10012KT 10SM FEW039 33/24 A3000 RMK AO2 SLP156 T03280239
KBRO 211753Z 09011KT 10SM FEW043 SCT060 33/23 A3000 RMK AO2 SLP158 T03330233 10344 20256 58004
KBRO 211653Z 12007KT 10SM FEW060 34/23 A3001 RMK AO2 SLP161 T03390233
KBRO 211553Z 08007KT 10SM SCT029 32/24 A3001 RMK AO2 SLP162 T03220239
KBRO 211453Z 11005KT 10SM CLR 31/24 A3001 RMK AO2 SLP162 T03060239 51007
KBRO 211353Z 12006KT 10SM FEW022 29/26 A3001 RMK AO2 SLP160 T02940256
KBRO 211253Z 00000KT 10SM CLR 27/26 A3000 RMK AO2 SLP157 T02670261
KBRO 211153Z 00000KT 10SM CLR 26/25 A2999 RMK AO2 SLP155 T02560250 10272 20250 55001
KBRO 211053Z AUTO 00000KT 10SM CLR 26/25 A2999 RMK AO2 SLP153 T02560250